Observation data for Northwest Lubbock on 08/14/2019      Previous  Date  Next       Current Mesonet Observations  Soil Data  Daily Summary Page  Observations in Plain Language
KLBW 140500Z 06006KT 26/17 A3014 RMK A01 T02600166  RH  059%=      5-min Rain = 0
KLBW 140505Z 06006KT 26/17 A3014 RMK A01 T02590167  RH  060%=      5-min Rain = 0
KLBW 140510Z 06007KT 26/17 A3013 RMK A01 T02590168  RH  060%=      5-min Rain = 0
KLBW 140515Z 07008KT 26/17 A3013 RMK A01 T02590168  RH  060%=      5-min Rain = 0
KLBW 140520Z 08006KT 26/17 A3013 RMK A01 T02580168  RH  061%=      5-min Rain = 0
KLBW 140525Z 08006KT 26/17 A3013 RMK A01 T02560169  RH  062%=      5-min Rain = 0
KLBW 140530Z 08005KT 26/17 A3013 RMK A01 T02550169  RH  062%=      5-min Rain = 0
KLBW 140535Z 09005KT 25/17 A3013 RMK A01 T02530169  RH  062%=      5-min Rain = 0
KLBW 140540Z 10004KT 25/17 A3013 RMK A01 T02510168  RH  063%=      5-min Rain = 0
KLBW 140545Z 11005KT 25/17 A3013 RMK A01 T02490168  RH  064%=      5-min Rain = 0
KLBW 140550Z 09006KT 25/17 A3012 RMK A01 T02490168  RH  064%=      5-min Rain = 0
KLBW 140555Z 09007G12KT 25/17 A3012 RMK A01 T02530168  RH  062%=      5-min Rain = 0
KLBW 140600Z 08006KT 25/17 A3012 RMK A01 T02530167  RH  062%=      5-min Rain = 0
KLBW 140605Z 07006KT 25/17 A3013 RMK A01 T02520167  RH  062%=      5-min Rain = 0
KLBW 140610Z 07007KT 25/17 A3013 RMK A01 T02530167  RH  062%=      5-min Rain = 0
KLBW 140615Z 07006KT 25/17 A3013 RMK A01 T02520167  RH  062%=      5-min Rain = 0
KLBW 140620Z 07006KT 25/17 A3014 RMK A01 T02510167  RH  063%=      5-min Rain = 0
KLBW 140625Z 07006KT 25/17 A3014 RMK A01 T02490168  RH  063%=      5-min Rain = 0
KLBW 140630Z 06007KT 25/17 A3014 RMK A01 T02490167  RH  064%=      5-min Rain = 0
KLBW 140635Z 06007KT 25/17 A3013 RMK A01 T02500167  RH  063%=      5-min Rain = 0
KLBW 140640Z 07006KT 25/17 A3014 RMK A01 T02500167  RH  063%=      5-min Rain = 0
KLBW 140645Z 09007G13KT 25/17 A3014 RMK A01 T02480167  RH  064%=      5-min Rain = 0
KLBW 140650Z 08006KT 25/17 A3014 RMK A01 T02460168  RH  065%=      5-min Rain = 0
KLBW 140655Z 08008G13KT 25/17 A3014 RMK A01 T02460167  RH  065%=      5-min Rain = 0
KLBW 140700Z 08008KT 25/17 A3014 RMK A01 T02460167  RH  064%=      5-min Rain = 0
KLBW 140705Z 08007KT 25/17 A3014 RMK A01 T02450167  RH  065%=      5-min Rain = 0
KLBW 140710Z 07009KT 25/17 A3015 RMK A01 T02450167  RH  065%=      5-min Rain = 0
KLBW 140715Z 07008KT 25/17 A3015 RMK A01 T02450167  RH  065%=      5-min Rain = 0
KLBW 140720Z 07008KT 24/17 A3015 RMK A01 T02440167  RH  065%=      5-min Rain = 0
KLBW 140725Z 07009KT 25/17 A3015 RMK A01 T02450168  RH  065%=      5-min Rain = 0
KLBW 140730Z 07006KT 24/17 A3015 RMK A01 T02440168  RH  066%=      5-min Rain = 0
KLBW 140735Z 07007KT 24/17 A3015 RMK A01 T02430168  RH  066%=      5-min Rain = 0
KLBW 140740Z 07008KT 24/17 A3015 RMK A01 T02430168  RH  066%=      5-min Rain = 0
KLBW 140745Z 06008KT 24/17 A3015 RMK A01 T02430169  RH  067%=      5-min Rain = 0
KLBW 140750Z 06007G13KT 24/17 A3014 RMK A01 T02420169  RH  067%=      5-min Rain = 0
KLBW 140755Z 06008KT 24/17 A3015 RMK A01 T02430169  RH  067%=      5-min Rain = 0
KLBW 140800Z 06009KT 24/17 A3015 RMK A01 T02430169  RH  067%=      5-min Rain = 0
KLBW 140805Z 05007KT 24/17 A3015 RMK A01 T02420169  RH  067%=      5-min Rain = 0
KLBW 140810Z 06007KT 24/17 A3015 RMK A01 T02390170  RH  068%=      5-min Rain = 0
KLBW 140815Z 06008KT 24/17 A3015 RMK A01 T02390170  RH  069%=      5-min Rain = 0
KLBW 140820Z 06007KT 24/17 A3015 RMK A01 T02390170  RH  069%=      5-min Rain = 0
KLBW 140825Z 06005KT 24/17 A3015 RMK A01 T02380170  RH  069%=      5-min Rain = 0
KLBW 140830Z 07005KT 24/17 A3015 RMK A01 T02360170  RH  070%=      5-min Rain = 0
KLBW 140835Z 07006KT 24/17 A3014 RMK A01 T02360170  RH  070%=      5-min Rain = 0
KLBW 140840Z 08005KT 24/17 A3014 RMK A01 T02350170  RH  070%=      5-min Rain = 0
KLBW 140845Z 08005KT 23/17 A3014 RMK A01 T02340170  RH  071%=      5-min Rain = 0
KLBW 140850Z 08006KT 23/17 A3014 RMK A01 T02340170  RH  071%=      5-min Rain = 0
KLBW 140855Z 08007KT 24/17 A3014 RMK A01 T02350171  RH  071%=      5-min Rain = 0
KLBW 140900Z 08007KT 24/17 A3014 RMK A01 T02350171  RH  071%=      5-min Rain = 0
KLBW 140905Z 08007KT 24/17 A3014 RMK A01 T02350171  RH  071%=      5-min Rain = 0
KLBW 140910Z 08006KT 23/17 A3014 RMK A01 T02330171  RH  072%=      5-min Rain = 0
KLBW 140915Z 08007KT 23/17 A3014 RMK A01 T02330171  RH  072%=      5-min Rain = 0
KLBW 140920Z 08007KT 23/17 A3014 RMK A01 T02330171  RH  072%=      5-min Rain = 0
KLBW 140925Z 08005KT 23/17 A3014 RMK A01 T02330171  RH  072%=      5-min Rain = 0
KLBW 140930Z 08006KT 23/17 A3014 RMK A01 T02310171  RH  073%=      5-min Rain = 0
KLBW 140935Z 08005KT 23/17 A3014 RMK A01 T02310171  RH  073%=      5-min Rain = 0
KLBW 140940Z 07006KT 23/17 A3014 RMK A01 T02300171  RH  073%=      5-min Rain = 0
KLBW 140945Z 07006KT 23/17 A3015 RMK A01 T02310171  RH  073%=      5-min Rain = 0
KLBW 140950Z 07006KT 23/17 A3015 RMK A01 T02300171  RH  073%=      5-min Rain = 0
KLBW 140955Z 07005KT 23/17 A3015 RMK A01 T02300171  RH  073%=      5-min Rain = 0
KLBW 141000Z 07005KT 23/17 A3015 RMK A01 T02300171  RH  073%=      5-min Rain = 0
KLBW 141005Z 06005KT 23/17 A3015 RMK A01 T02300171  RH  073%=      5-min Rain = 0
KLBW 141010Z 04004KT 23/17 A3015 RMK A01 T02320171  RH  072%=      5-min Rain = 0
KLBW 141015Z 04006KT 23/17 A3015 RMK A01 T02320171  RH  072%=      5-min Rain = 0
KLBW 141020Z 04005KT 23/17 A3016 RMK A01 T02310171  RH  072%=      5-min Rain = 0
KLBW 141025Z 04008KT 23/17 A3016 RMK A01 T02310171  RH  073%=      5-min Rain = 0
KLBW 141030Z 04006G11KT 23/17 A3016 RMK A01 T02300171  RH  073%=      5-min Rain = 0
KLBW 141035Z 04008G15KT 23/17 A3017 RMK A01 T02300170  RH  072%=      5-min Rain = 0
KLBW 141040Z 05010G16KT 23/17 A3017 RMK A01 T02290168  RH  072%=      5-min Rain = 0
KLBW 141045Z 05010G17KT 23/17 A3017 RMK A01 T02290168  RH  072%=      5-min Rain = 0
KLBW 141050Z 04011KT 23/17 A3017 RMK A01 T02280168  RH  073%=      5-min Rain = 0
KLBW 141055Z 04013G19KT 23/17 A3017 RMK A01 T02260169  RH  074%=      5-min Rain = 0
KLBW 141100Z 04012KT 22/17 A3018 RMK A01 T02240170  RH  075%=      5-min Rain = 0
KLBW 141105Z 04011G20KT 22/17 A3018 RMK A01 T02220171  RH  076%=      5-min Rain = 0
KLBW 141110Z 04011G17KT 22/17 A3018 RMK A01 T02210170  RH  077%=      5-min Rain = 0
KLBW 141115Z 04010G17KT 22/17 A3018 RMK A01 T02200169  RH  077%=      5-min Rain = 0
KLBW 141120Z 04011G18KT 22/17 A3018 RMK A01 T02190167  RH  076%=      5-min Rain = 0
KLBW 141125Z 05012G17KT 22/16 A3018 RMK A01 T02180163  RH  074%=      5-min Rain = 0
KLBW 141130Z 05012G17KT 22/16 A3018 RMK A01 T02170159  RH  073%=      5-min Rain = 0
KLBW 141135Z 05010G16KT 22/16 A3019 RMK A01 T02160157  RH  072%=      5-min Rain = 0
KLBW 141140Z 05014G20KT 21/15 A3019 RMK A01 T02140150  RH  070%=      5-min Rain = 0
KLBW 141145Z 04011G16KT 21/15 A3019 RMK A01 T02130148  RH  070%=      5-min Rain = 0
KLBW 141150Z 04013G20KT 21/15 A302 RMK A01 T02110146  RH  069%=      5-min Rain = 0
KLBW 141155Z 05011KT 21/14 A302 RMK A01 T02090144  RH  069%=      5-min Rain = 0
KLBW 141200Z 04009G17KT 21/14 A302 RMK A01 T02080143  RH  069%=      5-min Rain = 0
KLBW 141205Z 04012G21KT 21/14 A302 RMK A01 T02080142  RH  069%=      5-min Rain = 0
KLBW 141210Z 04013KT 21/14 A302 RMK A01 T02070141  RH  069%=      5-min Rain = 0
KLBW 141215Z 05011G16KT 21/14 A3021 RMK A01 T02060141  RH  069%=      5-min Rain = 0
KLBW 141220Z 04013G18KT 21/14 A3021 RMK A01 T02050141  RH  069%=      5-min Rain = 0
KLBW 141225Z 04012G19KT 21/14 A3021 RMK A01 T02050141  RH  069%=      5-min Rain = 0
KLBW 141230Z 04013G19KT 20/14 A3021 RMK A01 T02040139  RH  069%=      5-min Rain = 0
KLBW 141235Z 04012G17KT 20/14 A3022 RMK A01 T02030139  RH  069%=      5-min Rain = 0
KLBW 141240Z 04011KT 20/14 A3022 RMK A01 T02040139  RH  069%=      5-min Rain = 0
KLBW 141245Z 04011G17KT 20/14 A3022 RMK A01 T02040139  RH  069%=      5-min Rain = 0
KLBW 141250Z 04011KT 20/14 A3022 RMK A01 T02040139  RH  069%=      5-min Rain = 0
KLBW 141255Z 04010G17KT 21/14 A3023 RMK A01 T02050140  RH  069%=      5-min Rain = 0
KLBW 141300Z 03011G16KT 21/14 A3023 RMK A01 T02060140  RH  069%=      5-min Rain = 0
KLBW 141305Z 03011G16KT 21/14 A3023 RMK A01 T02070140  RH  068%=      5-min Rain = 0
KLBW 141310Z 03011KT 21/14 A3023 RMK A01 T02080140  RH  068%=      5-min Rain = 0
KLBW 141315Z 04010G17KT 21/14 A3024 RMK A01 T02090141  RH  068%=      5-min Rain = 0
KLBW 141320Z 03011G17KT 21/14 A3023 RMK A01 T02110141  RH  067%=      5-min Rain = 0
KLBW 141325Z 03012KT 21/14 A3023 RMK A01 T02130142  RH  067%=      5-min Rain = 0
KLBW 141330Z 03012KT 21/14 A3023 RMK A01 T02140142  RH  066%=      5-min Rain = 0
KLBW 141335Z 03012KT 22/14 A3024 RMK A01 T02160143  RH  066%=      5-min Rain = 0
KLBW 141340Z 03011KT 22/14 A3024 RMK A01 T02190143  RH  065%=      5-min Rain = 0
KLBW 141345Z 02009G14KT 23/14 A3024 RMK A01 T02250144  RH  063%=      5-min Rain = 0
KLBW 141350Z 03011G16KT 23/14 A3024 RMK A01 T02280144  RH  062%=      5-min Rain = 0
KLBW 141355Z 03011G16KT 23/14 A3025 RMK A01 T02270144  RH  062%=      5-min Rain = 0
KLBW 141400Z 03009G14KT 23/15 A3024 RMK A01 T02290146  RH  062%=      5-min Rain = 0
KLBW 141405Z 04008KT 23/15 A3025 RMK A01 T02330147  RH  061%=      5-min Rain = 0
KLBW 141410Z 05008G14KT 24/15 A3025 RMK A01 T02370148  RH  060%=      5-min Rain = 0
KLBW 141415Z 04009KT 24/15 A3025 RMK A01 T02400148  RH  059%=      5-min Rain = 0
KLBW 141420Z 04008KT 24/15 A3025 RMK A01 T02430149  RH  058%=      5-min Rain = 0
KLBW 141425Z 04009KT 25/15 A3025 RMK A01 T02450148  RH  057%=      5-min Rain = 0
KLBW 141430Z 04010KT 24/15 A3025 RMK A01 T02400147  RH  058%=      5-min Rain = 0
KLBW 141435Z 04010KT 24/15 A3025 RMK A01 T02410148  RH  059%=      5-min Rain = 0
KLBW 141440Z 03008KT 24/15 A3025 RMK A01 T02440149  RH  058%=      5-min Rain = 0
KLBW 141445Z 01011G16KT 24/15 A3026 RMK A01 T02430148  RH  058%=      5-min Rain = 0
KLBW 141450Z 01010KT 24/15 A3026 RMK A01 T02410148  RH  058%=      5-min Rain = 0
KLBW 141455Z 02008KT 24/15 A3026 RMK A01 T02430148  RH  058%=      5-min Rain = 0
KLBW 141500Z 01010G15KT 25/15 A3026 RMK A01 T02470148  RH  057%=      5-min Rain = 0
KLBW 141505Z 03009KT 25/15 A3026 RMK A01 T02520148  RH  055%=      5-min Rain = 0
KLBW 141510Z 01009G15KT 25/15 A3026 RMK A01 T02520147  RH  054%=      5-min Rain = 0
KLBW 141515Z 04007KT 26/15 A3025 RMK A01 T02550147  RH  054%=      5-min Rain = 0
KLBW 141520Z 03010KT 26/15 A3025 RMK A01 T02560148  RH  054%=      5-min Rain = 0
KLBW 141525Z 04009G14KT 26/15 A3025 RMK A01 T02610149  RH  052%=      5-min Rain = 0
KLBW 141530Z 02008KT 27/15 A3025 RMK A01 T02650149  RH  051%=      5-min Rain = 0
KLBW 141535Z 03007G14KT 27/15 A3025 RMK A01 T02650149  RH  051%=      5-min Rain = 0
KLBW 141540Z 02008KT 27/15 A3024 RMK A01 T02660148  RH  051%=      5-min Rain = 0
KLBW 141545Z 04007KT 27/15 A3024 RMK A01 T02710150  RH  050%=      5-min Rain = 0
KLBW 141550Z 04008KT 27/15 A3024 RMK A01 T02710150  RH  050%=      5-min Rain = 0
KLBW 141555Z 04007G12KT 27/15 A3024 RMK A01 T02740150  RH  049%=      5-min Rain = 0
KLBW 141600Z 04008G13KT 27/15 A3024 RMK A01 T02740149  RH  048%=      5-min Rain = 0
KLBW 141605Z 03007KT 28/15 A3024 RMK A01 T02760150  RH  048%=      5-min Rain = 0
KLBW 141610Z 06009KT 28/15 A3023 RMK A01 T02830147  RH  045%=      5-min Rain = 0
KLBW 141615Z 05009KT 29/15 A3023 RMK A01 T02890146  RH  043%=      5-min Rain = 0
KLBW 141620Z 05007KT 29/15 A3023 RMK A01 T02900145  RH  043%=      5-min Rain = 0
KLBW 141625Z 06008G13KT 30/14 A3022 RMK A01 T02960141  RH  040%=      5-min Rain = 0
KLBW 141630Z 06010G15KT 30/14 A3022 RMK A01 T02950139  RH  040%=      5-min Rain = 0
KLBW 141635Z 06010KT 29/14 A3021 RMK A01 T02940138  RH  040%=      5-min Rain = 0
KLBW 141640Z 06010KT 30/13 A3021 RMK A01 T02970132  RH  038%=      5-min Rain = 0
KLBW 141645Z 08011KT 30/14 A3021 RMK A01 T02970136  RH  039%=      5-min Rain = 0
KLBW 141650Z 07011KT 30/13 A302 RMK A01 T02980129  RH  037%=      5-min Rain = 0
KLBW 141655Z 08010G15KT 30/13 A302 RMK A01 T03020128  RH  036%=      5-min Rain = 0
KLBW 141700Z 07011KT 31/12 A302 RMK A01 T03050118  RH  033%=      5-min Rain = 0
KLBW 141705Z 08010KT 31/12 A302 RMK A01 T03080124  RH  034%=      5-min Rain = 0
KLBW 141710Z 08009G16KT 31/12 A3019 RMK A01 T03070123  RH  034%=      5-min Rain = 0
KLBW 141715Z 09011G16KT 31/13 A3019 RMK A01 T03120127  RH  033%=      5-min Rain = 0
KLBW 141720Z 09010G15KT 31/12 A3019 RMK A01 T03080121  RH  033%=      5-min Rain = 0
KLBW 141725Z 09011G18KT 31/12 A3019 RMK A01 T03100122  RH  033%=      5-min Rain = 0
KLBW 141730Z 10009G14KT 31/13 A3019 RMK A01 T03130125  RH  033%=      5-min Rain = 0
KLBW 141735Z 10009G17KT 31/12 A3019 RMK A01 T03140124  RH  033%=      5-min Rain = 0
KLBW 141740Z 09010G16KT 32/13 A3018 RMK A01 T03170126  RH  032%=      5-min Rain = 0
KLBW 141745Z 09010G16KT 32/12 A3018 RMK A01 T03160122  RH  032%=      5-min Rain = 0
KLBW 141750Z 10011G16KT 32/12 A3018 RMK A01 T03160123  RH  032%=      5-min Rain = 0
KLBW 141755Z 10009G15KT 32/13 A3019 RMK A01 T03160125  RH  032%=      5-min Rain = 0
KLBW 141800Z 08007KT 32/13 A3019 RMK A01 T03230129  RH  032%=      5-min Rain = 0
KLBW 141805Z 07009G15KT 32/12 A3019 RMK A01 T03240117  RH  029%=      5-min Rain = 0
KLBW 141810Z 06008KT 32/12 A3019 RMK A01 T03230119  RH  030%=      5-min Rain = 0
KLBW 141815Z 05008G13KT 33/12 A3019 RMK A01 T03250118  RH  029%=      5-min Rain = 0
KLBW 141820Z 05011G16KT 33/11 A3019 RMK A01 T03300112  RH  027%=      5-min Rain = 0
KLBW 141825Z 05011G17KT 33/10 A3019 RMK A01 T03290104  RH  026%=      5-min Rain = 0
KLBW 141830Z 04012G17KT 33/11 A3019 RMK A01 T03280109  RH  027%=      5-min Rain = 0
KLBW 141835Z 05011G16KT 33/11 A3019 RMK A01 T03310106  RH  026%=      5-min Rain = 0
KLBW 141840Z 05009KT 33/11 A3018 RMK A01 T03290106  RH  026%=      5-min Rain = 0
KLBW 141845Z 09010KT 33/11 A3018 RMK A01 T03320112  RH  027%=      5-min Rain = 0
KLBW 141850Z 08010G16KT 33/11 A3018 RMK A01 T03270113  RH  028%=      5-min Rain = 0
KLBW 141855Z 06010G16KT 33/11 A3019 RMK A01 T03310106  RH  026%=      5-min Rain = 0
KLBW 141900Z 04009KT 33/10 A3019 RMK A01 T03330103  RH  025%=      5-min Rain = 0
KLBW 141905Z 03011G16KT 33/10 A3018 RMK A01 T03330102  RH  025%=      5-min Rain = 0
KLBW 141910Z 06007KT 33/11 A3018 RMK A01 T03340112  RH  027%=      5-min Rain = 0
KLBW 141915Z 06010G17KT 34/11 A3018 RMK A01 T03390113  RH  026%=      5-min Rain = 0
KLBW 141920Z 06011G16KT 34/11 A3018 RMK A01 T03350107  RH  026%=      5-min Rain = 0
KLBW 141925Z 06008G13KT 34/11 A3018 RMK A01 T03350106  RH  026%=      5-min Rain = 0
KLBW 141930Z 03010G15KT 34/10 A3018 RMK A01 T03360100  RH  024%=      5-min Rain = 0
KLBW 141935Z 05009G17KT 34/11 A3018 RMK A01 T03360110  RH  026%=      5-min Rain = 0
KLBW 141940Z 04007G16KT 34/11 A3018 RMK A01 T03350109  RH  026%=      5-min Rain = 0
KLBW 141945Z 05009G15KT 34/11 A3018 RMK A01 T03420106  RH  024%=      5-min Rain = 0
KLBW 141950Z 07009G15KT 34/11 A3017 RMK A01 T03390109  RH  025%=      5-min Rain = 0
KLBW 141955Z 07009G15KT 34/11 A3017 RMK A01 T03430111  RH  025%=      5-min Rain = 0
KLBW 142000Z 06010G15KT 34/10 A3016 RMK A01 T03410104  RH  024%=      5-min Rain = 0
KLBW 142005Z 06009G14KT 34/10 A3016 RMK A01 T03390101  RH  024%=      5-min Rain = 0
KLBW 142010Z 04010G15KT 34/10 A3015 RMK A01 T03390099  RH  024%=      5-min Rain = 0
KLBW 142015Z 03009G14KT 34/09 A3015 RMK A01 T03410094  RH  023%=      5-min Rain = 0
KLBW 142020Z 05008KT 34/09 A3015 RMK A01 T03390088  RH  022%=      5-min Rain = 0
KLBW 142025Z 03008KT 34/09 A3015 RMK A01 T03400091  RH  022%=      5-min Rain = 0
KLBW 142030Z 03008G13KT 34/09 A3014 RMK A01 T03370094  RH  023%=      5-min Rain = 0
KLBW 142035Z 04009KT 34/10 A3014 RMK A01 T03390101  RH  024%=      5-min Rain = 0
KLBW 142040Z 04005G10KT 34/10 A3013 RMK A01 T03370100  RH  024%=      5-min Rain = 0
KLBW 142045Z 04007KT 34/10 A3013 RMK A01 T03380101  RH  024%=      5-min Rain = 0
KLBW 142050Z 05008G13KT 34/10 A3012 RMK A01 T03420102  RH  024%=      5-min Rain = 0
KLBW 142055Z 04005KT 35/10 A3012 RMK A01 T03450101  RH  023%=      5-min Rain = 0
KLBW 142100Z 08007KT 35/11 A3012 RMK A01 T03460105  RH  024%=      5-min Rain = 0
KLBW 142105Z 08006G11KT 34/10 A3011 RMK A01 T03420101  RH  024%=      5-min Rain = 0
KLBW 142110Z 07008KT 34/10 A3011 RMK A01 T03440097  RH  023%=      5-min Rain = 0
KLBW 142115Z 02003KT 34/09 A3011 RMK A01 T03420094  RH  023%=      5-min Rain = 0
KLBW 142120Z 03007KT 35/09 A3011 RMK A01 T03470094  RH  022%=      5-min Rain = 0
KLBW 142125Z 05004KT 35/09 A3011 RMK A01 T03450091  RH  022%=      5-min Rain = 0
KLBW 142130Z 03006KT 35/09 A301 RMK A01 T03460090  RH  022%=      5-min Rain = 0
KLBW 142135Z 04004G9KT 34/09 A301 RMK A01 T03430089  RH  022%=      5-min Rain = 0
KLBW 142140Z 03001KT 34/09 A301 RMK A01 T03430089  RH  022%=      5-min Rain = 0
KLBW 142145Z 05004KT 35/09 A301 RMK A01 T03460091  RH  022%=      5-min Rain = 0
KLBW 142150Z 06004G9KT 35/10 A301 RMK A01 T03460095  RH  022%=      5-min Rain = 0
KLBW 142155Z 06004G9KT 35/09 A301 RMK A01 T03470094  RH  022%=      5-min Rain = 0
KLBW 142200Z 01004KT 35/09 A301 RMK A01 T03500094  RH  022%=      5-min Rain = 0
KLBW 142205Z 03006KT 35/10 A3009 RMK A01 T03480095  RH  022%=      5-min Rain = 0
KLBW 142210Z 03006KT 35/09 A3009 RMK A01 T03460094  RH  022%=      5-min Rain = 0
KLBW 142215Z 06006G11KT 35/10 A3009 RMK A01 T03470095  RH  022%=      5-min Rain = 0
KLBW 142220Z 07004KT 35/09 A3009 RMK A01 T03470093  RH  022%=      5-min Rain = 0
KLBW 142225Z 08002G7KT 35/09 A3009 RMK A01 T03470093  RH  022%=      5-min Rain = 0
KLBW 142230Z 06005G11KT 35/09 A3009 RMK A01 T03450092  RH  022%=      5-min Rain = 0
KLBW 142235Z 03007KT 35/09 A3009 RMK A01 T03460091  RH  022%=      5-min Rain = 0
KLBW 142240Z 03005KT 35/09 A3009 RMK A01 T03450091  RH  022%=      5-min Rain = 0
KLBW 142245Z 05007KT 35/09 A3009 RMK A01 T03480092  RH  022%=      5-min Rain = 0
KLBW 142250Z 07006KT 35/09 A3009 RMK A01 T03460090  RH  021%=      5-min Rain = 0
KLBW 142255Z 07005KT 35/09 A3009 RMK A01 T03460088  RH  021%=      5-min Rain = 0
KLBW 142300Z 03006KT 35/09 A3009 RMK A01 T03480088  RH  021%=      5-min Rain = 0
KLBW 142305Z 03006KT 35/09 A3009 RMK A01 T03460085  RH  021%=      5-min Rain = 0
KLBW 142310Z 01007KT 35/08 A3009 RMK A01 T03450084  RH  021%=      5-min Rain = 0
KLBW 142315Z 02005KT 34/08 A3009 RMK A01 T03440083  RH  021%=      5-min Rain = 0
KLBW 142320Z 03007KT 35/09 A3009 RMK A01 T03450087  RH  021%=      5-min Rain = 0
KLBW 142325Z 06006KT 35/09 A3009 RMK A01 T03450090  RH  022%=      5-min Rain = 0
KLBW 142330Z 06004KT 34/09 A3009 RMK A01 T03440090  RH  022%=      5-min Rain = 0
KLBW 142335Z 04007KT 34/09 A3009 RMK A01 T03440090  RH  022%=      5-min Rain = 0
KLBW 142340Z 02006KT 34/09 A3009 RMK A01 T03430089  RH  022%=      5-min Rain = 0
KLBW 142345Z 05007G12KT 34/09 A3009 RMK A01 T03430093  RH  022%=      5-min Rain = 0
KLBW 142350Z 08005KT 34/10 A3009 RMK A01 T03420095  RH  023%=      5-min Rain = 0
KLBW 142355Z 04005KT 34/10 A3009 RMK A01 T03430097  RH  023%=      5-min Rain = 0
KLBW 150000Z 05006KT 34/10 A3009 RMK A01 T03410099  RH  024%=      5-min Rain = 0
KLBW 150005Z 08006KT 34/10 A3009 RMK A01 T03380100  RH  024%=      5-min Rain = 0
KLBW 150010Z 08006KT 34/10 A3009 RMK A01 T03380103  RH  025%=      5-min Rain = 0
KLBW 150015Z 06007KT 34/10 A3009 RMK A01 T03370103  RH  025%=      5-min Rain = 0
KLBW 150020Z 05007KT 34/10 A3009 RMK A01 T03370102  RH  025%=      5-min Rain = 0
KLBW 150025Z 06004KT 34/10 A3009 RMK A01 T03350100  RH  025%=      5-min Rain = 0
KLBW 150030Z 05002KT 34/10 A3009 RMK A01 T03350100  RH  025%=      5-min Rain = 0
KLBW 150035Z 05004KT 34/10 A3009 RMK A01 T03350102  RH  025%=      5-min Rain = 0
KLBW 150040Z 05007KT 33/10 A3009 RMK A01 T03330101  RH  025%=      5-min Rain = 0
KLBW 150045Z 06005KT 33/10 A3009 RMK A01 T03320101  RH  025%=      5-min Rain = 0
KLBW 150050Z 07006KT 33/10 A3009 RMK A01 T03280102  RH  026%=      5-min Rain = 0
KLBW 150055Z 06006KT 33/10 A3009 RMK A01 T03270102  RH  026%=      5-min Rain = 0
KLBW 150100Z 05006KT 33/10 A3009 RMK A01 T03270101  RH  026%=      5-min Rain = 0
KLBW 150105Z 05006KT 33/10 A3009 RMK A01 T03250101  RH  026%=      5-min Rain = 0
KLBW 150110Z 06005KT 32/10 A301 RMK A01 T03210103  RH  027%=      5-min Rain = 0
KLBW 150115Z 06005KT 32/10 A301 RMK A01 T03180104  RH  028%=      5-min Rain = 0
KLBW 150120Z 07005KT 31/11 A301 RMK A01 T03140105  RH  028%=      5-min Rain = 0
KLBW 150125Z 07005KT 31/11 A301 RMK A01 T03130106  RH  029%=      5-min Rain = 0
KLBW 150130Z 07005KT 31/11 A301 RMK A01 T03100108  RH  030%=      5-min Rain = 0
KLBW 150135Z 07005KT 31/11 A3011 RMK A01 T03090111  RH  030%=      5-min Rain = 0
KLBW 150140Z 06005KT 31/11 A3011 RMK A01 T03090111  RH  031%=      5-min Rain = 0
KLBW 150145Z 07005KT 31/11 A3011 RMK A01 T03070110  RH  031%=      5-min Rain = 0
KLBW 150150Z 07004KT 30/11 A3011 RMK A01 T03040111  RH  031%=      5-min Rain = 0
KLBW 150155Z 07004KT 30/11 A3011 RMK A01 T03010112  RH  032%=      5-min Rain = 0
KLBW 150200Z 07003KT 30/11 A3012 RMK A01 T02980113  RH  033%=      5-min Rain = 0
KLBW 150205Z 08004KT 30/11 A3012 RMK A01 T02950113  RH  034%=      5-min Rain = 0
KLBW 150210Z 08005KT 29/12 A3012 RMK A01 T02940115  RH  034%=      5-min Rain = 0
KLBW 150215Z 08004KT 29/12 A3012 RMK A01 T02930116  RH  035%=      5-min Rain = 0
KLBW 150220Z 08004KT 29/12 A3013 RMK A01 T02920118  RH  035%=      5-min Rain = 0
KLBW 150225Z 08005KT 29/12 A3013 RMK A01 T02880123  RH  038%=      5-min Rain = 0
KLBW 150230Z 08005KT 29/12 A3013 RMK A01 T02850123  RH  038%=      5-min Rain = 0
KLBW 150235Z 08005KT 29/12 A3014 RMK A01 T02850122  RH  038%=      5-min Rain = 0
KLBW 150240Z 08005KT 29/12 A3014 RMK A01 T02860122  RH  038%=      5-min Rain = 0
KLBW 150245Z 09005KT 29/12 A3014 RMK A01 T02860124  RH  038%=      5-min Rain = 0
KLBW 150250Z 09005KT 29/12 A3014 RMK A01 T02870123  RH  038%=      5-min Rain = 0
KLBW 150255Z 09006KT 29/12 A3014 RMK A01 T02870124  RH  038%=      5-min Rain = 0
KLBW 150300Z 09007KT 29/12 A3014 RMK A01 T02880124  RH  038%=      5-min Rain = 0
KLBW 150305Z 09006KT 29/13 A3014 RMK A01 T02910125  RH  037%=      5-min Rain = 0
KLBW 150310Z 10007G13KT 29/13 A3015 RMK A01 T02910125  RH  037%=      5-min Rain = 0
KLBW 150315Z 10007KT 29/13 A3015 RMK A01 T02900126  RH  038%=      5-min Rain = 0
KLBW 150320Z 10008KT 29/13 A3015 RMK A01 T02900127  RH  038%=      5-min Rain = 0
KLBW 150325Z 10008KT 29/13 A3015 RMK A01 T02890127  RH  038%=      5-min Rain = 0
KLBW 150330Z 11007G14KT 29/13 A3016 RMK A01 T02860128  RH  039%=      5-min Rain = 0
KLBW 150335Z 11007G13KT 29/13 A3016 RMK A01 T02850130  RH  040%=      5-min Rain = 0
KLBW 150340Z 11007G12KT 28/13 A3016 RMK A01 T02840131  RH  041%=      5-min Rain = 0
KLBW 150345Z 11008KT 28/13 A3016 RMK A01 T02840132  RH  041%=      5-min Rain = 0
KLBW 150350Z 11007G12KT 28/13 A3016 RMK A01 T02830134  RH  042%=      5-min Rain = 0
KLBW 150355Z 11007KT 28/14 A3016 RMK A01 T02840136  RH  042%=      5-min Rain = 0
KLBW 150400Z 12007KT 28/14 A3017 RMK A01 T02820138  RH  043%=      5-min Rain = 0
KLBW 150405Z 11009KT 28/14 A3017 RMK A01 T02830140  RH  043%=      5-min Rain = 0
KLBW 150410Z 11008KT 28/14 A3017 RMK A01 T02840141  RH  043%=      5-min Rain = 0
KLBW 150415Z 11008KT 28/14 A3017 RMK A01 T02830142  RH  044%=      5-min Rain = 0
KLBW 150420Z 11008G13KT 28/14 A3017 RMK A01 T02830142  RH  044%=      5-min Rain = 0
KLBW 150425Z 11007KT 28/14 A3017 RMK A01 T02820142  RH  044%=      5-min Rain = 0
KLBW 150430Z 11008KT 28/14 A3017 RMK A01 T02820143  RH  044%=      5-min Rain = 0
KLBW 150435Z 11008KT 28/14 A3017 RMK A01 T02810144  RH  045%=      5-min Rain = 0
KLBW 150440Z 11008G15KT 28/14 A3016 RMK A01 T02800144  RH  045%=      5-min Rain = 0
KLBW 150445Z 11006KT 28/15 A3016 RMK A01 T02800146  RH  046%=      5-min Rain = 0
KLBW 150450Z 11006G11KT 28/15 A3016 RMK A01 T02780148  RH  047%=      5-min Rain = 0
KLBW 150455Z 11006KT 28/15 A3017 RMK A01 T02760149  RH  048%=      5-min Rain = 0

Page generated in 0.0104 seconds.